Alexandra N — A8NR5 — position and weather

sailwx.info

Track history (hours):
 
Tides and Currents Weather Stations Pressure Air Temp Water Temp Dewpoint Dewpoint Depression Visibility Wind Speed Wind Dir Waves Ship Positions

Alexandra N

Last reported at 2015-Apr-16 16:13 UTC. Time now 2015-Apr-19 04:33 UTC.
Position N 41°00' E 029°01'.

Length 184 m; draft 7.5 m.

Type: Cargo ship. MMSI: 636091436.

Date/timePositionNaut miles runAvg speedWind from/ knotsBaromVisibWave heightAir tempDewpointWater temp
2015-Apr-16 16:13N 41°00' E 029°01'  
2015-Apr-14 03:23N 41°00' E 029°01'0 0.0
2015-Apr-14 01:05N 41°00' E 029°01'0 0.0
2015-Apr-13 18:17N 41°00' E 029°01'  
2015-Apr-10 16:15N 41°00' E 029°01'0 0.0
2015-Apr-10 08:21N 41°00' E 029°01'0 0.0
2015-Apr-10 04:33N 41°00' E 029°01'0 0.0
2015-Apr-10 00:32N 41°00' E 029°01'0 0.0
2015-Apr-09 23:33N 41°00' E 029°01'0 0.0
2015-Apr-09 20:31N 41°00' E 029°01'0 0.0
2015-Apr-09 19:13N 41°00' E 029°01'0 0.0
2015-Apr-09 18:30N 41°00' E 029°01'1 0.7
2015-Apr-09 17:32N 40°60' E 028°60'4 4.3
2015-Apr-09 16:29N 40°55' E 028°59'1 1.0
2015-Apr-09 15:33N 40°55' E 028°58'4 3.2
2015-Apr-09 14:20N 40°59' E 028°57'0 0.0
2015-Apr-09 13:20N 40°58' E 028°57'0 0.0
2015-Apr-09 12:32N 40°59' E 028°57'0 0.0
2015-Apr-09 10:32N 40°59' E 028°57'0 0.0
2015-Apr-09 09:32N 40°59' E 028°57'0 0.0
2015-Apr-09 08:32N 40°59' E 028°57'0 0.0
2015-Apr-09 07:20N 40°59' E 028°57'0 0.0
2015-Apr-09 06:26N 40°59' E 028°57'0 0.0
2015-Apr-09 05:32N 40°59' E 028°57'0 0.0
2015-Apr-09 04:26N 40°59' E 028°57'0 0.0
2015-Apr-09 03:26N 40°59' E 028°57'0 0.1
2015-Apr-09 02:20N 40°59' E 028°57'0 0.1
2015-Apr-09 01:32N 40°59' E 028°57'0 0.0
2015-Apr-09 00:32N 40°59' E 028°57'0 0.0
2015-Apr-08 23:14N 40°59' E 028°57'0 0.0
2015-Apr-08 22:32N 40°59' E 028°57'0 0.0
2015-Apr-08 21:14N 40°59' E 028°57'0 0.0
2015-Apr-08 20:32N 40°59' E 028°57'0 0.0
2015-Apr-08 19:26N 40°59' E 028°57'0 0.0
2015-Apr-08 18:20N 40°59' E 028°57'0 0.0
2015-Apr-08 17:08N 40°59' E 028°57'0 0.0
2015-Apr-08 16:32N 40°59' E 028°57'0 0.1
2015-Apr-08 15:08N 40°59' E 028°57'0 0.0
2015-Apr-08 14:32N 40°59' E 028°57'0 0.1
2015-Apr-08 13:26N 40°59' E 028°57'0 0.0
2015-Apr-08 12:08N 40°59' E 028°57'0 0.0
2015-Apr-08 11:26N 40°59' E 028°57'0 0.0
2015-Apr-08 10:26N 40°59' E 028°57'0 0.0
2015-Apr-08 09:14N 40°59' E 028°57'0 0.0
2015-Apr-08 07:32N 40°59' E 028°57'0 0.0
2015-Apr-08 06:20N 40°59' E 028°57'0 0.0
2015-Apr-08 03:32N 40°59' E 028°57'0 0.0
2015-Apr-08 02:32N 40°59' E 028°57'0 0.1
2015-Apr-08 01:32N 40°59' E 028°57'0 0.0
2015-Apr-08 00:19N 40°59' E 028°57'0 0.0
2015-Apr-07 23:25N 40°59' E 028°57'0 0.0
2015-Apr-07 22:31N 40°59' E 028°57'0 0.0
2015-Apr-07 21:31N 40°59' E 028°57'0 0.0
2015-Apr-07 20:07N 40°59' E 028°57'0 0.0
2015-Apr-07 19:31N 40°59' E 028°57'0 0.0
2015-Apr-07 18:31N 40°59' E 028°57'0 0.0
2015-Apr-07 17:25N 40°59' E 028°57'0 0.0
2015-Apr-07 16:25N 40°59' E 028°57'0 0.0
2015-Apr-07 15:25N 40°59' E 028°57'0 0.0
2015-Apr-07 14:25N 40°59' E 028°57'0 0.0
2015-Apr-07 13:13N 40°59' E 028°57'0 0.0
2015-Apr-07 12:25N 40°59' E 028°57'0 0.0
2015-Apr-07 11:31N 40°59' E 028°57'0 0.1
2015-Apr-07 10:25N 40°59' E 028°57'0 0.0
2015-Apr-07 09:19N 40°59' E 028°57'0 0.0
2015-Apr-07 08:31N 40°59' E 028°57'0 0.1
2015-Apr-07 07:25N 40°59' E 028°57'0 0.0
2015-Apr-07 04:07N 40°59' E 028°57'0 0.1
2015-Apr-07 03:19N 40°59' E 028°57'0 0.0
2015-Apr-07 02:07N 40°59' E 028°57'0 0.1
2015-Apr-07 01:25N 40°59' E 028°57'0 0.2
2015-Apr-07 00:25N 40°59' E 028°57'0 0.0
2015-Apr-06 23:31N 40°59' E 028°57'0 0.0
2015-Apr-06 22:25N 40°59' E 028°57'0 0.1
2015-Apr-06 21:31N 40°59' E 028°57'0 0.1
2015-Apr-06 20:19N 40°59' E 028°57'0 0.1
2015-Apr-06 19:31N 40°59' E 028°57'0 0.0
2015-Apr-06 18:07N 40°59' E 028°57'0 0.2
2015-Apr-06 17:31N 40°59' E 028°57'0 0.1
2015-Apr-06 16:19N 40°59' E 028°57'  
Track history (hours):
 
Tides and Currents Weather Stations Pressure Air Temp Water Temp Dewpoint Dewpoint Depression Visibility Wind Speed Wind Dir Waves Ship Positions

Alexandra N

Last reported at 2015-Apr-16 16:13 UTC. Time now 2015-Apr-19 04:33 UTC.
Position N 41°00' E 029°01'.

Length 184 m; draft 7.5 m.

Type: Cargo ship. MMSI: 636091436.

Date/timePositionNaut miles runAvg speedWind from/ knotsBaromVisibWave heightAir tempDewpointWater temp
2015-Apr-16 16:13N 41°00' E 029°01'  
2015-Apr-14 03:23N 41°00' E 029°01'0 0.0
2015-Apr-14 01:05N 41°00' E 029°01'0 0.0
2015-Apr-13 18:17N 41°00' E 029°01'  
2015-Apr-10 16:15N 41°00' E 029°01'0 0.0
2015-Apr-10 08:21N 41°00' E 029°01'0 0.0
2015-Apr-10 04:33N 41°00' E 029°01'0 0.0
2015-Apr-10 00:32N 41°00' E 029°01'0 0.0
2015-Apr-09 23:33N 41°00' E 029°01'0 0.0
2015-Apr-09 20:31N 41°00' E 029°01'0 0.0
2015-Apr-09 19:13N 41°00' E 029°01'0 0.0
2015-Apr-09 18:30N 41°00' E 029°01'1 0.7
2015-Apr-09 17:32N 40°60' E 028°60'4 4.3
2015-Apr-09 16:29N 40°55' E 028°59'1 1.0
2015-Apr-09 15:33N 40°55' E 028°58'4 3.2
2015-Apr-09 14:20N 40°59' E 028°57'0 0.0
2015-Apr-09 13:20N 40°58' E 028°57'0 0.0
2015-Apr-09 12:32N 40°59' E 028°57'0 0.0
2015-Apr-09 10:32N 40°59' E 028°57'0 0.0
2015-Apr-09 09:32N 40°59' E 028°57'0 0.0
2015-Apr-09 08:32N 40°59' E 028°57'0 0.0
2015-Apr-09 07:20N 40°59' E 028°57'0 0.0
2015-Apr-09 06:26N 40°59' E 028°57'0 0.0
2015-Apr-09 05:32N 40°59' E 028°57'0 0.0
2015-Apr-09 04:26N 40°59' E 028°57'0 0.0
2015-Apr-09 03:26N 40°59' E 028°57'0 0.1
2015-Apr-09 02:20N 40°59' E 028°57'0 0.1
2015-Apr-09 01:32N 40°59' E 028°57'0 0.0
2015-Apr-09 00:32N 40°59' E 028°57'0 0.0
2015-Apr-08 23:14N 40°59' E 028°57'0 0.0
2015-Apr-08 22:32N 40°59' E 028°57'0 0.0
2015-Apr-08 21:14N 40°59' E 028°57'0 0.0
2015-Apr-08 20:32N 40°59' E 028°57'0 0.0
2015-Apr-08 19:26N 40°59' E 028°57'0 0.0
2015-Apr-08 18:20N 40°59' E 028°57'0 0.0
2015-Apr-08 17:08N 40°59' E 028°57'0 0.0
2015-Apr-08 16:32N 40°59' E 028°57'0 0.1
2015-Apr-08 15:08N 40°59' E 028°57'0 0.0
2015-Apr-08 14:32N 40°59' E 028°57'0 0.1
2015-Apr-08 13:26N 40°59' E 028°57'0 0.0
2015-Apr-08 12:08N 40°59' E 028°57'0 0.0
2015-Apr-08 11:26N 40°59' E 028°57'0 0.0
2015-Apr-08 10:26N 40°59' E 028°57'0 0.0
2015-Apr-08 09:14N 40°59' E 028°57'0 0.0
2015-Apr-08 07:32N 40°59' E 028°57'0 0.0
2015-Apr-08 06:20N 40°59' E 028°57'0 0.0
2015-Apr-08 03:32N 40°59' E 028°57'0 0.0
2015-Apr-08 02:32N 40°59' E 028°57'0 0.1
2015-Apr-08 01:32N 40°59' E 028°57'0 0.0
2015-Apr-08 00:19N 40°59' E 028°57'0 0.0
2015-Apr-07 23:25N 40°59' E 028°57'0 0.0
2015-Apr-07 22:31N 40°59' E 028°57'0 0.0
2015-Apr-07 21:31N 40°59' E 028°57'0 0.0
2015-Apr-07 20:07N 40°59' E 028°57'0 0.0
2015-Apr-07 19:31N 40°59' E 028°57'0 0.0
2015-Apr-07 18:31N 40°59' E 028°57'0 0.0
2015-Apr-07 17:25N 40°59' E 028°57'0 0.0
2015-Apr-07 16:25N 40°59' E 028°57'0 0.0
2015-Apr-07 15:25N 40°59' E 028°57'0 0.0
2015-Apr-07 14:25N 40°59' E 028°57'0 0.0
2015-Apr-07 13:13N 40°59' E 028°57'0 0.0
2015-Apr-07 12:25N 40°59' E 028°57'0 0.0
2015-Apr-07 11:31N 40°59' E 028°57'0 0.1
2015-Apr-07 10:25N 40°59' E 028°57'0 0.0
2015-Apr-07 09:19N 40°59' E 028°57'0 0.0
2015-Apr-07 08:31N 40°59' E 028°57'0 0.1
2015-Apr-07 07:25N 40°59' E 028°57'0 0.0
2015-Apr-07 04:07N 40°59' E 028°57'0 0.1
2015-Apr-07 03:19N 40°59' E 028°57'0 0.0
2015-Apr-07 02:07N 40°59' E 028°57'0 0.1
2015-Apr-07 01:25N 40°59' E 028°57'0 0.2
2015-Apr-07 00:25N 40°59' E 028°57'0 0.0
2015-Apr-06 23:31N 40°59' E 028°57'0 0.0
2015-Apr-06 22:25N 40°59' E 028°57'0 0.1
2015-Apr-06 21:31N 40°59' E 028°57'0 0.1
2015-Apr-06 20:19N 40°59' E 028°57'0 0.1
2015-Apr-06 19:31N 40°59' E 028°57'0 0.0
2015-Apr-06 18:07N 40°59' E 028°57'0 0.2
2015-Apr-06 17:31N 40°59' E 028°57'0 0.1
2015-Apr-06 16:19N 40°59' E 028°57'  

Dump ship's entire track history